createdAt,value
2018-05-31T00:00:55.802Z,19.80
2018-05-31T00:03:23.328Z,19.80
2018-05-31T00:05:51.627Z,19.60
2018-05-31T00:08:19.141Z,19.60
2018-05-31T00:10:46.656Z,19.50
2018-05-31T00:13:14.210Z,19.50
2018-05-31T00:15:41.728Z,19.40
2018-05-31T00:18:09.259Z,19.30
2018-05-31T00:20:36.793Z,19.20
2018-05-31T00:23:04.311Z,19.10
2018-05-31T00:25:31.832Z,18.90
2018-05-31T00:27:59.376Z,18.70
2018-05-31T00:30:26.911Z,18.60
2018-05-31T00:32:55.188Z,18.50
2018-05-31T00:35:23.505Z,18.40
2018-05-31T00:37:51.017Z,18.40
2018-05-31T00:40:19.291Z,18.20
2018-05-31T00:42:47.606Z,18.20
2018-05-31T00:45:15.126Z,18.20
2018-05-31T00:47:43.409Z,18.20
2018-05-31T00:50:11.721Z,18.20
2018-05-31T00:52:39.236Z,18.20
2018-05-31T00:55:07.513Z,18.00
2018-05-31T00:57:35.825Z,17.80
2018-05-31T01:00:03.340Z,17.80
2018-05-31T01:02:30.862Z,17.80
2018-05-31T01:04:58.392Z,17.70
2018-05-31T01:07:25.912Z,17.60
2018-05-31T01:09:53.440Z,17.40
2018-05-31T01:12:20.995Z,17.40
2018-05-31T01:14:48.858Z,17.30
2018-05-31T01:17:16.389Z,17.10
2018-05-31T01:19:43.922Z,17.00
2018-05-31T01:22:12.218Z,16.80
2018-05-31T01:24:40.501Z,16.70
2018-05-31T01:27:08.045Z,16.80
2018-05-31T01:29:36.330Z,16.80
2018-05-31T01:32:03.877Z,16.80
2018-05-31T01:34:31.399Z,16.80
2018-05-31T01:36:58.913Z,16.80
2018-05-31T01:39:26.432Z,17.00
2018-05-31T01:41:53.983Z,17.10
2018-05-31T01:44:21.501Z,17.10
2018-05-31T01:46:49.036Z,17.00
2018-05-31T01:49:17.716Z,16.80
2018-05-31T01:51:46.021Z,16.90
2018-05-31T01:54:13.535Z,16.90
2018-05-31T01:56:41.064Z,16.90
2018-05-31T01:59:08.981Z,16.90
2018-05-31T02:01:37.294Z,16.80
2018-05-31T02:04:04.826Z,16.80
2018-05-31T02:06:32.344Z,16.60
2018-05-31T02:08:59.868Z,16.50
2018-05-31T02:11:27.401Z,16.40
2018-05-31T02:13:54.947Z,16.20
2018-05-31T02:16:23.220Z,16.00
2018-05-31T02:18:51.526Z,15.90
2018-05-31T02:21:19.040Z,15.90
2018-05-31T02:23:46.593Z,15.90
2018-05-31T02:26:14.113Z,15.90
2018-05-31T02:28:41.632Z,15.90
2018-05-31T02:31:09.931Z,16.10
2018-05-31T02:33:37.461Z,16.10
2018-05-31T02:36:04.999Z,16.10
2018-05-31T02:38:32.530Z,16.00
2018-05-31T02:41:00.056Z,15.90
2018-05-31T02:43:28.345Z,15.70
2018-05-31T02:45:55.884Z,15.60
2018-05-31T02:48:24.209Z,15.60
2018-05-31T02:50:51.764Z,15.60
2018-05-31T02:53:19.294Z,15.50
2018-05-31T02:55:46.817Z,15.50
2018-05-31T02:58:14.358Z,15.50
2018-05-31T03:00:41.863Z,15.50
2018-05-31T03:03:09.425Z,15.50
2018-05-31T03:05:37.704Z,15.30
2018-05-31T03:08:06.002Z,15.30
2018-05-31T03:10:33.533Z,15.30
2018-05-31T03:13:01.832Z,15.20
2018-05-31T03:15:29.357Z,15.10
2018-05-31T03:17:57.650Z,15.10
2018-05-31T03:20:25.944Z,15.00
2018-05-31T03:22:53.462Z,15.00
2018-05-31T03:25:21.005Z,14.90
2018-05-31T03:27:48.536Z,14.90
2018-05-31T03:30:16.101Z,14.90
2018-05-31T03:32:43.624Z,14.80
2018-05-31T03:35:11.926Z,14.80
2018-05-31T03:37:39.436Z,14.70
2018-05-31T03:40:06.983Z,14.70
2018-05-31T03:42:34.513Z,14.70
2018-05-31T03:45:02.032Z,14.60
2018-05-31T03:47:30.364Z,14.60
2018-05-31T03:49:57.839Z,14.60
2018-05-31T03:52:25.358Z,14.50
2018-05-31T03:54:52.889Z,14.60
2018-05-31T03:57:20.436Z,14.50
2018-05-31T03:59:48.708Z,14.50
2018-05-31T04:02:17.025Z,14.50
2018-05-31T04:04:44.551Z,14.50
2018-05-31T04:07:12.841Z,14.50
2018-05-31T04:09:40.380Z,14.50
2018-05-31T04:12:08.655Z,14.60
2018-05-31T04:14:36.951Z,14.70
2018-05-31T04:17:04.485Z,14.70
2018-05-31T04:19:32.798Z,14.70
2018-05-31T04:22:00.328Z,14.70
2018-05-31T04:24:28.633Z,14.90
2018-05-31T04:26:56.150Z,14.90
2018-05-31T04:29:23.687Z,15.00
2018-05-31T04:31:51.217Z,15.10
2018-05-31T04:34:18.738Z,15.20
2018-05-31T04:36:47.045Z,15.40
2018-05-31T04:39:14.568Z,15.40
2018-05-31T04:41:42.868Z,15.30
2018-05-31T04:44:10.406Z,15.30
2018-05-31T04:46:38.727Z,15.30
2018-05-31T04:49:06.246Z,15.30
2018-05-31T04:51:34.566Z,15.40
2018-05-31T04:54:02.089Z,15.40
2018-05-31T04:56:30.375Z,15.40
2018-05-31T04:58:57.907Z,15.40
2018-05-31T05:01:25.429Z,15.50
2018-05-31T05:03:52.956Z,15.60
2018-05-31T05:06:20.483Z,15.60
2018-05-31T05:08:48.013Z,15.70
2018-05-31T05:11:15.536Z,15.70
2018-05-31T05:13:43.091Z,15.80
2018-05-31T05:16:10.615Z,15.80
2018-05-31T05:18:38.159Z,15.80
2018-05-31T05:21:05.673Z,15.90
2018-05-31T05:23:33.959Z,16.10
2018-05-31T05:26:01.511Z,16.10
2018-05-31T05:28:29.032Z,16.30
2018-05-31T05:30:57.331Z,16.50
2018-05-31T05:33:24.857Z,16.50
2018-05-31T05:35:52.403Z,16.70
2018-05-31T05:38:20.301Z,16.80
2018-05-31T05:40:49.521Z,17.10
2018-05-31T05:43:17.041Z,17.10
2018-05-31T05:45:44.562Z,17.30
2018-05-31T05:48:12.105Z,17.40
2018-05-31T05:50:39.630Z,17.60
2018-05-31T05:53:07.933Z,17.80
2018-05-31T05:58:26.104Z,18.00
2018-05-31T06:00:53.622Z,18.10
2018-05-31T06:03:21.931Z,18.40
2018-05-31T06:05:49.442Z,18.30
2018-05-31T06:08:16.994Z,18.50
2018-05-31T06:10:44.524Z,18.60
2018-05-31T06:13:12.058Z,18.70
2018-05-31T06:15:39.599Z,18.80
2018-05-31T06:18:07.902Z,19.00
2018-05-31T06:20:35.442Z,19.00
2018-05-31T06:23:03.724Z,19.20
2018-05-31T06:25:32.031Z,19.40
2018-05-31T06:27:59.562Z,19.40
2018-05-31T06:30:27.863Z,19.60
2018-05-31T06:32:55.438Z,19.50
2018-05-31T06:35:22.995Z,19.70
2018-05-31T06:37:51.464Z,19.70
2018-05-31T06:40:18.976Z,19.80
2018-05-31T06:42:46.599Z,19.90
2018-05-31T06:45:14.104Z,20.00
2018-05-31T06:47:41.625Z,20.10
2018-05-31T06:50:09.128Z,20.20
2018-05-31T06:52:37.425Z,20.40
2018-05-31T06:55:04.933Z,20.40
2018-05-31T06:57:32.469Z,20.50
2018-05-31T06:59:59.987Z,20.60
2018-05-31T07:02:28.269Z,20.90
2018-05-31T07:04:56.566Z,21.00
2018-05-31T07:07:24.078Z,21.00
2018-05-31T07:09:51.605Z,21.10
2018-05-31T07:12:19.125Z,21.20
2018-05-31T07:14:47.482Z,21.40
2018-05-31T07:17:14.988Z,21.40
2018-05-31T07:19:42.522Z,21.60
2018-05-31T07:22:10.807Z,21.90
2018-05-31T07:24:38.343Z,21.90
2018-05-31T07:27:06.631Z,22.10
2018-05-31T07:29:34.904Z,22.20
2018-05-31T07:32:03.196Z,22.20
2018-05-31T07:34:31.511Z,22.20
2018-05-31T07:37:01.853Z,22.40
2018-05-31T07:39:31.505Z,22.70
2018-05-31T07:42:00.351Z,22.60
2018-05-31T07:44:30.197Z,22.80
2018-05-31T07:46:59.780Z,22.90
2018-05-31T07:49:28.187Z,23.00
2018-05-31T07:51:56.490Z,23.10
2018-05-31T07:54:24.000Z,23.10
2018-05-31T07:56:52.292Z,23.20
2018-05-31T07:59:20.594Z,23.20
2018-05-31T08:01:48.111Z,23.20
2018-05-31T08:04:15.632Z,23.20
2018-05-31T08:06:43.146Z,23.30
2018-05-31T08:09:11.435Z,23.70
2018-05-31T08:11:38.955Z,23.60
2018-05-31T08:14:06.509Z,23.90
2018-05-31T08:16:34.038Z,24.00
2018-05-31T08:19:01.551Z,24.10
2018-05-31T08:21:29.850Z,24.20
2018-05-31T08:23:57.372Z,24.20
2018-05-31T08:26:24.930Z,24.30
2018-05-31T08:28:52.439Z,24.40
2018-05-31T08:31:20.015Z,24.60
2018-05-31T08:33:47.509Z,24.70
2018-05-31T08:36:15.046Z,24.70
2018-05-31T08:38:43.476Z,24.70
2018-05-31T08:41:11.121Z,24.80
2018-05-31T08:43:39.393Z,25.10
2018-05-31T08:46:07.668Z,25.20
2018-05-31T08:48:35.231Z,25.20
2018-05-31T08:51:03.512Z,25.40
2018-05-31T08:53:31.819Z,25.50
2018-05-31T08:55:59.326Z,25.50
2018-05-31T08:58:26.905Z,25.60
2018-05-31T09:00:54.422Z,25.60
2018-05-31T09:03:21.964Z,25.60
2018-05-31T09:05:49.496Z,25.70
2018-05-31T09:08:17.792Z,25.60
2018-05-31T09:10:45.322Z,25.60
2018-05-31T09:13:13.591Z,25.60
2018-05-31T09:15:41.877Z,25.70
2018-05-31T09:18:10.164Z,25.90
2018-05-31T09:20:37.697Z,25.80
2018-05-31T09:23:05.208Z,26.00
2018-05-31T09:25:32.742Z,26.10
2018-05-31T09:28:00.250Z,26.30
2018-05-31T09:30:27.790Z,26.40
2018-05-31T09:32:55.311Z,26.50
2018-05-31T09:35:23.585Z,27.00
2018-05-31T09:37:51.152Z,27.00
2018-05-31T09:40:18.665Z,27.20
2018-05-31T09:42:46.187Z,27.30
2018-05-31T09:45:13.716Z,27.30
2018-05-31T09:47:41.273Z,27.50
2018-05-31T09:50:09.548Z,27.80
2018-05-31T09:52:37.854Z,27.80
2018-05-31T09:55:05.399Z,27.80
2018-05-31T09:57:32.912Z,27.90
2018-05-31T10:00:00.474Z,28.00
2018-05-31T10:02:27.986Z,28.10
2018-05-31T10:04:55.545Z,28.00
2018-05-31T10:07:23.061Z,28.00
2018-05-31T10:09:50.646Z,28.00
2018-05-31T10:12:18.916Z,28.10
2018-05-31T10:14:47.203Z,28.20
2018-05-31T10:17:14.720Z,28.10
2018-05-31T10:19:42.257Z,28.30
2018-05-31T10:22:10.554Z,28.50
2018-05-31T10:24:38.056Z,28.50
2018-05-31T10:27:05.589Z,28.60
2018-05-31T10:29:33.094Z,28.60
2018-05-31T10:32:00.618Z,28.70
2018-05-31T10:34:28.902Z,28.70
2018-05-31T10:36:57.201Z,28.70
2018-05-31T10:39:24.781Z,28.60
2018-05-31T10:41:53.046Z,28.90
2018-05-31T10:44:20.571Z,28.80
2018-05-31T10:46:48.861Z,29.00
2018-05-31T10:49:16.393Z,29.00
2018-05-31T10:51:44.675Z,29.20
2018-05-31T10:54:12.963Z,29.30
2018-05-31T10:56:41.238Z,29.50
2018-05-31T10:59:09.543Z,29.70
2018-05-31T11:01:37.036Z,29.60
2018-05-31T11:04:04.585Z,29.60
2018-05-31T11:06:32.099Z,29.60
2018-05-31T11:08:59.618Z,29.70
2018-05-31T11:11:27.159Z,29.80
2018-05-31T11:13:54.701Z,29.80
2018-05-31T11:16:22.232Z,29.80
2018-05-31T11:18:50.500Z,29.90
2018-05-31T11:21:18.798Z,29.90
2018-05-31T11:23:46.313Z,29.90
2018-05-31T11:26:13.837Z,29.80
2018-05-31T11:28:41.379Z,29.70
2018-05-31T11:31:08.912Z,29.70
2018-05-31T11:33:37.194Z,29.90
2018-05-31T11:36:05.456Z,30.00
2018-05-31T11:38:33.750Z,30.20
2018-05-31T11:41:01.263Z,30.20
2018-05-31T11:43:28.806Z,30.30
2018-05-31T11:45:56.350Z,30.30
2018-05-31T11:48:23.882Z,30.30
2018-05-31T11:50:51.409Z,30.20
2018-05-31T11:53:18.961Z,30.30
2018-05-31T11:55:46.507Z,30.30
2018-05-31T11:58:14.021Z,30.30
2018-05-31T12:00:41.570Z,30.40
2018-05-31T12:03:09.834Z,30.40
2018-05-31T12:05:38.432Z,30.40
2018-05-31T12:08:06.734Z,30.40
2018-05-31T12:10:34.259Z,30.40
2018-05-31T12:13:03.003Z,30.30
2018-05-31T12:15:30.524Z,30.30
2018-05-31T12:17:58.036Z,30.30
2018-05-31T12:20:25.574Z,30.40
2018-05-31T12:22:53.091Z,30.50
2018-05-31T12:25:21.405Z,30.70
2018-05-31T12:27:48.935Z,30.70
2018-05-31T12:30:16.453Z,30.70
2018-05-31T12:32:43.973Z,30.80
2018-05-31T12:35:11.487Z,30.70
2018-05-31T12:37:39.792Z,30.60
2018-05-31T12:40:07.325Z,30.60
2018-05-31T12:42:35.615Z,30.80
2018-05-31T12:45:03.937Z,30.90
2018-05-31T12:47:31.449Z,30.90
2018-05-31T12:49:59.746Z,31.00
2018-05-31T12:52:27.265Z,30.90
2018-05-31T12:54:54.800Z,30.90
2018-05-31T12:57:22.336Z,30.90
2018-05-31T12:59:49.860Z,31.00
2018-05-31T13:02:18.140Z,30.80
2018-05-31T13:04:46.432Z,30.80
2018-05-31T13:07:13.939Z,30.80
2018-05-31T13:09:41.483Z,30.80
2018-05-31T13:12:08.983Z,30.90
2018-05-31T13:14:37.264Z,31.00
2018-05-31T13:17:05.608Z,31.00
2018-05-31T13:19:33.122Z,31.00
2018-05-31T13:22:00.662Z,31.00
2018-05-31T13:24:28.942Z,30.80
2018-05-31T13:26:56.485Z,30.70
2018-05-31T13:29:24.773Z,30.70
2018-05-31T13:31:52.327Z,30.70
2018-05-31T13:34:20.610Z,30.60
2018-05-31T13:36:48.886Z,30.70
2018-05-31T13:39:17.194Z,30.70
2018-05-31T13:41:44.710Z,30.70
2018-05-31T13:44:13.107Z,30.70
2018-05-31T13:46:40.738Z,30.80
2018-05-31T13:49:08.272Z,30.80
2018-05-31T13:51:35.790Z,30.90
2018-05-31T13:54:03.312Z,30.80
2018-05-31T13:56:30.859Z,30.80
2018-05-31T13:58:58.398Z,30.90
2018-05-31T14:01:25.915Z,30.90
2018-05-31T14:03:54.237Z,30.90
2018-05-31T14:06:21.737Z,30.90
2018-05-31T14:08:50.021Z,30.70
2018-05-31T14:11:18.316Z,30.60
2018-05-31T14:13:45.946Z,30.60
2018-05-31T14:16:13.469Z,30.20
2018-05-31T14:18:40.995Z,29.90
2018-05-31T14:21:08.559Z,29.50
2018-05-31T14:23:36.075Z,29.50
2018-05-31T14:26:03.609Z,29.50
2018-05-31T14:28:31.124Z,29.40
2018-05-31T14:30:58.663Z,29.30
2018-05-31T14:33:26.956Z,29.50
2018-05-31T14:35:55.793Z,29.20
2018-05-31T14:38:23.395Z,29.20
2018-05-31T14:40:51.691Z,29.30
2018-05-31T14:43:19.209Z,29.20
2018-05-31T14:45:46.716Z,29.50
2018-05-31T14:48:14.249Z,29.80
2018-05-31T14:50:42.538Z,29.80
2018-05-31T14:53:10.045Z,29.80
2018-05-31T14:55:37.582Z,29.80
2018-05-31T14:58:05.089Z,29.40
2018-05-31T15:00:33.383Z,28.80
2018-05-31T15:03:01.660Z,28.30
2018-05-31T15:05:29.962Z,28.20
2018-05-31T15:07:57.483Z,28.10
2018-05-31T15:10:25.797Z,27.80
2018-05-31T15:12:53.320Z,27.80
2018-05-31T15:15:21.602Z,27.30
2018-05-31T15:17:49.889Z,27.30
2018-05-31T15:20:17.459Z,27.30
2018-05-31T15:22:44.999Z,27.30
2018-05-31T15:25:13.266Z,27.10
2018-05-31T15:27:41.575Z,26.90
2018-05-31T15:30:09.092Z,26.90
2018-05-31T15:32:36.631Z,26.80
2018-05-31T15:35:04.165Z,26.70
2018-05-31T15:37:35.078Z,26.60
2018-05-31T15:40:02.602Z,26.20
2018-05-31T15:42:30.151Z,26.00
2018-05-31T15:44:57.673Z,25.90
2018-05-31T15:47:25.179Z,25.90
2018-05-31T15:49:52.705Z,25.90
2018-05-31T15:52:20.221Z,26.10
2018-05-31T15:54:48.532Z,26.30
2018-05-31T15:57:16.053Z,26.30
2018-05-31T15:59:47.357Z,26.10
2018-05-31T16:02:14.883Z,26.10
2018-05-31T16:04:42.397Z,25.80
2018-05-31T16:07:09.947Z,25.40
2018-05-31T16:09:37.484Z,25.20
2018-05-31T16:12:05.019Z,25.30
2018-05-31T16:14:32.542Z,25.40
2018-05-31T16:17:00.857Z,25.50
2018-05-31T16:19:28.475Z,25.50
2018-05-31T16:21:56.772Z,25.60
2018-05-31T16:24:25.488Z,25.60
2018-05-31T16:26:53.046Z,25.50
2018-05-31T16:29:20.548Z,25.40
2018-05-31T16:31:48.053Z,25.40
2018-05-31T16:34:15.584Z,25.10
2018-05-31T16:36:43.949Z,24.00
2018-05-31T16:39:11.492Z,23.90
2018-05-31T16:41:39.002Z,23.50
2018-05-31T16:44:06.532Z,23.30
2018-05-31T16:46:34.814Z,23.20
2018-05-31T16:49:03.148Z,23.30
2018-05-31T16:51:31.964Z,23.30
2018-05-31T16:54:00.363Z,23.80
2018-05-31T16:56:28.661Z,24.00
2018-05-31T16:58:57.373Z,23.90
2018-05-31T17:01:25.841Z,24.00
2018-05-31T17:03:53.357Z,24.00
2018-05-31T17:06:21.659Z,23.60
2018-05-31T17:08:49.168Z,23.50
2018-05-31T17:11:16.704Z,23.40
2018-05-31T17:13:44.204Z,23.30
2018-05-31T17:16:11.732Z,23.40
2018-05-31T17:18:39.247Z,23.20
2018-05-31T17:21:07.664Z,22.90
2018-05-31T17:23:35.207Z,22.60
2018-05-31T17:26:02.717Z,22.30
2018-05-31T17:28:31.026Z,22.00
2018-05-31T17:30:58.544Z,21.90
2018-05-31T17:33:26.085Z,21.70
2018-05-31T17:35:53.925Z,21.40
2018-05-31T17:38:21.466Z,21.30
2018-05-31T17:40:48.994Z,21.30
2018-05-31T17:43:16.525Z,21.00
2018-05-31T17:45:44.047Z,20.60
2018-05-31T17:48:11.559Z,20.20
2018-05-31T17:50:39.094Z,19.90
2018-05-31T17:53:07.373Z,19.20
2018-05-31T17:55:34.901Z,19.20
2018-05-31T17:58:02.422Z,19.20
2018-05-31T18:00:30.751Z,19.30
2018-05-31T18:03:01.003Z,19.30
2018-05-31T18:05:29.178Z,19.30
2018-05-31T18:07:57.626Z,19.30
2018-05-31T18:10:26.858Z,19.40
2018-05-31T18:12:54.797Z,19.30
2018-05-31T18:15:22.651Z,19.20
2018-05-31T18:17:50.836Z,19.20
2018-05-31T18:20:18.906Z,19.10
2018-05-31T18:22:46.555Z,19.00
2018-05-31T18:25:14.685Z,18.90
2018-05-31T18:27:42.398Z,18.90
2018-05-31T18:30:10.102Z,18.90
2018-05-31T18:32:38.900Z,18.80
2018-05-31T18:35:07.236Z,18.70
2018-05-31T18:37:34.844Z,18.60
2018-05-31T18:40:04.177Z,18.50
2018-05-31T18:42:32.658Z,18.50
2018-05-31T18:45:00.649Z,18.30
2018-05-31T18:47:28.296Z,18.10
2018-05-31T18:49:56.879Z,18.10
2018-05-31T18:52:24.916Z,18.10
2018-05-31T18:54:53.333Z,18.10
2018-05-31T18:57:22.863Z,18.10
2018-05-31T18:59:50.858Z,18.10
2018-05-31T19:02:19.092Z,18.00
2018-05-31T19:04:46.694Z,17.90
2018-05-31T19:07:15.472Z,17.80
2018-05-31T19:09:43.409Z,17.70
2018-05-31T19:12:11.054Z,17.70
2018-05-31T19:14:39.096Z,17.80
2018-05-31T19:17:08.331Z,18.00
2018-05-31T19:19:41.534Z,18.00
2018-05-31T19:22:09.066Z,18.30
2018-05-31T19:24:42.294Z,18.30
2018-05-31T19:27:09.837Z,18.10
2018-05-31T19:29:37.345Z,17.90
2018-05-31T19:32:04.863Z,17.90
2018-05-31T19:34:32.403Z,17.90
2018-05-31T19:37:05.553Z,18.00
2018-05-31T19:39:33.099Z,18.10
2018-05-31T19:42:00.627Z,18.40
2018-05-31T19:44:33.781Z,18.60
2018-05-31T19:47:02.117Z,18.60
2018-05-31T19:49:29.647Z,18.60
2018-05-31T19:52:03.528Z,18.70
2018-05-31T19:54:31.817Z,18.90
2018-05-31T19:56:59.351Z,18.90
2018-05-31T19:59:32.413Z,18.90
2018-05-31T20:02:05.635Z,19.00
2018-05-31T20:04:33.908Z,18.80
2018-05-31T20:07:02.196Z,18.60
2018-05-31T20:09:30.463Z,18.50
2018-05-31T20:11:58.756Z,18.40
2018-05-31T20:14:26.329Z,18.40
2018-05-31T20:16:53.784Z,18.30
2018-05-31T20:19:21.303Z,18.20
2018-05-31T20:21:48.832Z,18.20
2018-05-31T20:24:16.361Z,18.30
2018-05-31T20:26:43.864Z,18.40
2018-05-31T20:29:11.398Z,18.50
2018-05-31T20:31:38.935Z,18.60
2018-05-31T20:34:07.204Z,18.50
2018-05-31T20:36:34.720Z,18.50
2018-05-31T20:39:02.244Z,18.50
2018-05-31T20:41:29.783Z,18.50
2018-05-31T20:43:57.305Z,18.40
2018-05-31T20:46:24.854Z,18.50
2018-05-31T20:48:52.355Z,18.40
2018-05-31T20:51:19.903Z,18.10
2018-05-31T20:53:48.186Z,17.90
2018-05-31T20:56:15.727Z,17.90
2018-05-31T20:58:43.245Z,17.90
2018-05-31T21:01:10.757Z,18.00
2018-05-31T21:03:39.076Z,18.10
2018-05-31T21:06:06.586Z,18.10
2018-05-31T21:08:34.906Z,18.00
2018-05-31T21:11:02.427Z,18.00
2018-05-31T21:13:30.716Z,17.90
2018-05-31T21:15:58.219Z,17.90
2018-05-31T21:18:25.765Z,17.80
2018-05-31T21:20:53.268Z,17.70
2018-05-31T21:23:21.543Z,17.30
2018-05-31T21:25:49.077Z,17.30
2018-05-31T21:28:16.604Z,17.10
2018-05-31T21:30:44.137Z,16.90
2018-05-31T21:33:12.436Z,16.80
2018-05-31T21:35:40.068Z,16.80
2018-05-31T21:38:08.280Z,16.60
2018-05-31T21:40:35.812Z,16.60
2018-05-31T21:43:04.081Z,16.50
2018-05-31T21:45:32.346Z,16.50
2018-05-31T21:48:00.647Z,16.60
2018-05-31T21:50:28.165Z,16.60
2018-05-31T21:52:55.712Z,16.70
2018-05-31T21:55:23.225Z,16.70
2018-05-31T21:57:50.770Z,16.70
2018-05-31T22:00:26.742Z,16.50
2018-05-31T22:02:54.302Z,16.50
2018-05-31T22:05:21.810Z,16.50
2018-05-31T22:07:49.336Z,16.50
2018-05-31T22:10:16.870Z,16.50
2018-05-31T22:12:44.415Z,16.40
2018-05-31T22:15:12.702Z,16.30
2018-05-31T22:17:40.991Z,16.20
2018-05-31T22:20:08.516Z,16.20
2018-05-31T22:22:36.013Z,16.20
2018-05-31T22:25:03.540Z,16.10
2018-05-31T22:27:31.821Z,16.10
2018-05-31T22:29:59.370Z,16.10
2018-05-31T22:32:27.644Z,16.20
2018-05-31T22:34:55.165Z,16.20
2018-05-31T22:37:22.688Z,16.10
2018-05-31T22:39:50.223Z,16.10
2018-05-31T22:42:18.511Z,16.30
2018-05-31T22:44:46.797Z,16.40
2018-05-31T22:47:14.341Z,16.30
2018-05-31T22:49:42.612Z,16.40
2018-05-31T22:52:10.221Z,16.40
2018-05-31T22:54:37.734Z,16.40
2018-05-31T22:57:06.000Z,16.40
2018-05-31T22:59:33.521Z,16.30
2018-05-31T23:02:01.025Z,16.60
2018-05-31T23:04:29.325Z,17.00
2018-05-31T23:06:56.845Z,17.00
2018-05-31T23:09:24.398Z,17.10
2018-05-31T23:11:51.904Z,17.20
2018-05-31T23:14:19.447Z,17.20
2018-05-31T23:16:47.716Z,17.20
2018-05-31T23:19:16.035Z,17.20
2018-05-31T23:21:43.535Z,17.20
2018-05-31T23:24:11.039Z,17.30
2018-05-31T23:26:38.571Z,17.30
2018-05-31T23:29:06.856Z,17.30
2018-05-31T23:31:35.154Z,17.20
2018-05-31T23:34:02.670Z,17.20
2018-05-31T23:36:30.208Z,17.20
2018-05-31T23:38:57.713Z,17.20
2018-05-31T23:41:26.029Z,17.30
2018-05-31T23:43:53.535Z,17.20
2018-05-31T23:46:21.813Z,17.60
2018-05-31T23:48:50.132Z,17.60
2018-05-31T23:51:17.638Z,17.60
2018-05-31T23:53:45.171Z,17.70
2018-05-31T23:56:12.682Z,17.60
2018-05-31T23:58:40.216Z,17.50
